sensor_id;sensor_type;location;lat;lon;timestamp;temperature;humidity
57390;DHT22;43217;52.694;6.214;2023-10-31T00:00:51;11.00;99.90
57390;DHT22;43217;52.694;6.214;2023-10-31T00:03:16;10.90;99.90
57390;DHT22;43217;52.694;6.214;2023-10-31T00:05:42;10.90;99.90
57390;DHT22;43217;52.694;6.214;2023-10-31T00:08:08;10.90;99.90
57390;DHT22;43217;52.694;6.214;2023-10-31T00:10:34;10.90;99.90
57390;DHT22;43217;52.694;6.214;2023-10-31T00:13:10;10.80;99.90
57390;DHT22;43217;52.694;6.214;2023-10-31T00:15:37;10.80;99.90
57390;DHT22;43217;52.694;6.214;2023-10-31T00:18:02;10.80;99.90
57390;DHT22;43217;52.694;6.214;2023-10-31T00:20:36;10.80;99.90
57390;DHT22;43217;52.694;6.214;2023-10-31T00:23:02;10.80;99.90
57390;DHT22;43217;52.694;6.214;2023-10-31T00:25:27;10.80;99.90
57390;DHT22;43217;52.694;6.214;2023-10-31T00:27:53;10.80;99.90
57390;DHT22;43217;52.694;6.214;2023-10-31T00:30:19;10.80;99.90
57390;DHT22;43217;52.694;6.214;2023-10-31T00:32:45;10.90;99.90
57390;DHT22;43217;52.694;6.214;2023-10-31T00:35:10;10.80;99.90
57390;DHT22;43217;52.694;6.214;2023-10-31T00:37:38;10.80;99.90
57390;DHT22;43217;52.694;6.214;2023-10-31T00:40:08;10.80;99.90
57390;DHT22;43217;52.694;6.214;2023-10-31T00:42:37;10.70;99.90
57390;DHT22;43217;52.694;6.214;2023-10-31T00:45:03;10.60;99.90
57390;DHT22;43217;52.694;6.214;2023-10-31T00:47:29;10.60;99.90
57390;DHT22;43217;52.694;6.214;2023-10-31T00:49:54;10.60;99.90
57390;DHT22;43217;52.694;6.214;2023-10-31T00:52:20;10.50;99.90
57390;DHT22;43217;52.694;6.214;2023-10-31T00:54:45;10.50;99.90
57390;DHT22;43217;52.694;6.214;2023-10-31T00:57:11;10.40;99.90
57390;DHT22;43217;52.694;6.214;2023-10-31T00:59:37;10.40;99.90
57390;DHT22;43217;52.694;6.214;2023-10-31T01:02:04;10.40;99.90
57390;DHT22;43217;52.694;6.214;2023-10-31T01:04:30;10.40;99.90
57390;DHT22;43217;52.694;6.214;2023-10-31T01:06:56;10.40;99.90
57390;DHT22;43217;52.694;6.214;2023-10-31T01:09:22;10.40;99.90
57390;DHT22;43217;52.694;6.214;2023-10-31T01:11:48;10.40;99.90
57390;DHT22;43217;52.694;6.214;2023-10-31T01:14:13;10.40;99.90
57390;DHT22;43217;52.694;6.214;2023-10-31T01:16:40;10.40;99.90
57390;DHT22;43217;52.694;6.214;2023-10-31T01:19:06;10.30;99.90
57390;DHT22;43217;52.694;6.214;2023-10-31T01:21:31;10.30;99.90
57390;DHT22;43217;52.694;6.214;2023-10-31T01:23:59;10.30;99.90
57390;DHT22;43217;52.694;6.214;2023-10-31T01:26:24;10.40;99.90
57390;DHT22;43217;52.694;6.214;2023-10-31T01:28:50;10.40;99.90
57390;DHT22;43217;52.694;6.214;2023-10-31T01:31:16;10.40;99.90
57390;DHT22;43217;52.694;6.214;2023-10-31T01:33:42;10.30;99.90
57390;DHT22;43217;52.694;6.214;2023-10-31T01:36:08;10.20;99.90
57390;DHT22;43217;52.694;6.214;2023-10-31T01:38:35;10.20;99.90
57390;DHT22;43217;52.694;6.214;2023-10-31T01:41:01;10.20;99.90
57390;DHT22;43217;52.694;6.214;2023-10-31T01:43:37;10.20;99.90
57390;DHT22;43217;52.694;6.214;2023-10-31T01:46:04;10.20;99.90
57390;DHT22;43217;52.694;6.214;2023-10-31T01:48:31;10.20;99.90
57390;DHT22;43217;52.694;6.214;2023-10-31T01:50:58;10.20;99.90
57390;DHT22;43217;52.694;6.214;2023-10-31T01:53:25;10.10;99.90
57390;DHT22;43217;52.694;6.214;2023-10-31T01:55:51;10.10;99.90
57390;DHT22;43217;52.694;6.214;2023-10-31T01:58:19;10.10;99.90
57390;DHT22;43217;52.694;6.214;2023-10-31T02:00:46;10.10;99.90
57390;DHT22;43217;52.694;6.214;2023-10-31T02:03:13;10.20;99.90
57390;DHT22;43217;52.694;6.214;2023-10-31T02:05:39;10.20;99.90
57390;DHT22;43217;52.694;6.214;2023-10-31T02:08:05;10.20;99.90
57390;DHT22;43217;52.694;6.214;2023-10-31T02:10:34;10.20;99.90
57390;DHT22;43217;52.694;6.214;2023-10-31T02:13:10;10.20;99.90
57390;DHT22;43217;52.694;6.214;2023-10-31T02:15:37;10.20;99.90
57390;DHT22;43217;52.694;6.214;2023-10-31T02:18:02;10.20;99.90
57390;DHT22;43217;52.694;6.214;2023-10-31T02:20:28;10.20;99.90
57390;DHT22;43217;52.694;6.214;2023-10-31T02:22:53;10.20;99.90
57390;DHT22;43217;52.694;6.214;2023-10-31T02:25:19;10.20;99.90
57390;DHT22;43217;52.694;6.214;2023-10-31T02:27:45;10.20;99.90
57390;DHT22;43217;52.694;6.214;2023-10-31T02:30:11;10.20;99.90
57390;DHT22;43217;52.694;6.214;2023-10-31T02:32:37;10.30;99.90
57390;DHT22;43217;52.694;6.214;2023-10-31T02:35:15;10.30;99.90
57390;DHT22;43217;52.694;6.214;2023-10-31T02:37:42;10.30;99.90
57390;DHT22;43217;52.694;6.214;2023-10-31T02:40:08;10.30;99.90
57390;DHT22;43217;52.694;6.214;2023-10-31T02:42:33;10.40;99.90
57390;DHT22;43217;52.694;6.214;2023-10-31T02:44:59;10.30;99.90
57390;DHT22;43217;52.694;6.214;2023-10-31T02:47:25;10.40;99.90
57390;DHT22;43217;52.694;6.214;2023-10-31T02:49:50;10.40;99.90
57390;DHT22;43217;52.694;6.214;2023-10-31T02:52:16;10.40;99.90
57390;DHT22;43217;52.694;6.214;2023-10-31T02:54:41;10.40;99.90
57390;DHT22;43217;52.694;6.214;2023-10-31T02:57:07;10.40;99.90
57390;DHT22;43217;52.694;6.214;2023-10-31T02:59:33;10.40;99.90
57390;DHT22;43217;52.694;6.214;2023-10-31T03:01:58;10.40;99.90
57390;DHT22;43217;52.694;6.214;2023-10-31T03:04:24;10.40;99.90
57390;DHT22;43217;52.694;6.214;2023-10-31T03:06:50;10.40;99.90
57390;DHT22;43217;52.694;6.214;2023-10-31T03:09:15;10.40;99.90
57390;DHT22;43217;52.694;6.214;2023-10-31T03:11:41;10.40;99.90
57390;DHT22;43217;52.694;6.214;2023-10-31T03:14:07;10.40;99.90
57390;DHT22;43217;52.694;6.214;2023-10-31T03:16:32;10.30;99.90
57390;DHT22;43217;52.694;6.214;2023-10-31T03:18:58;10.30;99.90
57390;DHT22;43217;52.694;6.214;2023-10-31T03:21:24;10.40;99.90
57390;DHT22;43217;52.694;6.214;2023-10-31T03:23:51;10.30;99.90
57390;DHT22;43217;52.694;6.214;2023-10-31T03:26:18;10.30;99.90
57390;DHT22;43217;52.694;6.214;2023-10-31T03:28:45;10.40;99.90
57390;DHT22;43217;52.694;6.214;2023-10-31T03:31:13;10.30;99.90
57390;DHT22;43217;52.694;6.214;2023-10-31T03:33:40;10.30;99.90
57390;DHT22;43217;52.694;6.214;2023-10-31T03:36:07;10.30;99.90
57390;DHT22;43217;52.694;6.214;2023-10-31T03:38:33;10.30;99.90
57390;DHT22;43217;52.694;6.214;2023-10-31T03:40:59;10.30;99.90
57390;DHT22;43217;52.694;6.214;2023-10-31T03:43:24;10.30;99.90
57390;DHT22;43217;52.694;6.214;2023-10-31T03:45:51;10.30;99.90
57390;DHT22;43217;52.694;6.214;2023-10-31T03:48:17;10.30;99.90
57390;DHT22;43217;52.694;6.214;2023-10-31T03:50:45;10.30;99.90
57390;DHT22;43217;52.694;6.214;2023-10-31T03:53:11;10.30;99.90
57390;DHT22;43217;52.694;6.214;2023-10-31T03:55:36;10.30;99.90
57390;DHT22;43217;52.694;6.214;2023-10-31T03:58:08;10.30;99.90
57390;DHT22;43217;52.694;6.214;2023-10-31T04:00:34;10.40;99.90
57390;DHT22;43217;52.694;6.214;2023-10-31T04:02:59;10.30;99.90
57390;DHT22;43217;52.694;6.214;2023-10-31T04:05:25;10.30;99.90
57390;DHT22;43217;52.694;6.214;2023-10-31T04:07:51;10.30;99.90
57390;DHT22;43217;52.694;6.214;2023-10-31T04:10:18;10.30;99.90
57390;DHT22;43217;52.694;6.214;2023-10-31T04:12:43;10.30;99.90
57390;DHT22;43217;52.694;6.214;2023-10-31T04:15:09;10.30;99.90
57390;DHT22;43217;52.694;6.214;2023-10-31T04:17:35;10.30;99.90
57390;DHT22;43217;52.694;6.214;2023-10-31T04:20:01;10.30;99.90
57390;DHT22;43217;52.694;6.214;2023-10-31T04:22:27;10.30;99.90
57390;DHT22;43217;52.694;6.214;2023-10-31T04:24:53;10.40;99.90
57390;DHT22;43217;52.694;6.214;2023-10-31T04:27:19;10.30;99.90
57390;DHT22;43217;52.694;6.214;2023-10-31T04:29:46;10.30;99.90
57390;DHT22;43217;52.694;6.214;2023-10-31T04:32:11;10.30;99.90
57390;DHT22;43217;52.694;6.214;2023-10-31T04:34:37;10.30;99.90
57390;DHT22;43217;52.694;6.214;2023-10-31T04:37:03;10.30;99.90
57390;DHT22;43217;52.694;6.214;2023-10-31T04:39:28;10.20;99.90
57390;DHT22;43217;52.694;6.214;2023-10-31T04:41:54;10.30;99.90
57390;DHT22;43217;52.694;6.214;2023-10-31T04:44:19;10.30;99.90
57390;DHT22;43217;52.694;6.214;2023-10-31T04:46:45;10.30;99.90
57390;DHT22;43217;52.694;6.214;2023-10-31T04:49:10;10.30;99.90
57390;DHT22;43217;52.694;6.214;2023-10-31T04:51:37;10.20;99.90
57390;DHT22;43217;52.694;6.214;2023-10-31T04:54:13;10.20;99.90
57390;DHT22;43217;52.694;6.214;2023-10-31T04:56:39;10.20;99.90
57390;DHT22;43217;52.694;6.214;2023-10-31T04:59:05;10.20;99.90
57390;DHT22;43217;52.694;6.214;2023-10-31T05:01:31;10.20;99.90
57390;DHT22;43217;52.694;6.214;2023-10-31T05:03:56;10.20;99.90
57390;DHT22;43217;52.694;6.214;2023-10-31T05:06:22;10.20;99.90
57390;DHT22;43217;52.694;6.214;2023-10-31T05:08:49;10.20;99.90
57390;DHT22;43217;52.694;6.214;2023-10-31T05:11:18;10.20;99.90
57390;DHT22;43217;52.694;6.214;2023-10-31T05:13:44;10.20;99.90
57390;DHT22;43217;52.694;6.214;2023-10-31T05:16:20;10.20;99.90
57390;DHT22;43217;52.694;6.214;2023-10-31T05:18:46;10.20;99.90
57390;DHT22;43217;52.694;6.214;2023-10-31T05:21:11;10.20;99.90
57390;DHT22;43217;52.694;6.214;2023-10-31T05:23:41;10.20;99.90
57390;DHT22;43217;52.694;6.214;2023-10-31T05:26:08;10.20;99.90
57390;DHT22;43217;52.694;6.214;2023-10-31T05:28:33;10.20;99.90
57390;DHT22;43217;52.694;6.214;2023-10-31T05:30:59;10.20;99.90
57390;DHT22;43217;52.694;6.214;2023-10-31T05:33:25;10.20;99.90
57390;DHT22;43217;52.694;6.214;2023-10-31T05:35:51;10.20;99.90
57390;DHT22;43217;52.694;6.214;2023-10-31T05:38:16;10.20;99.90
57390;DHT22;43217;52.694;6.214;2023-10-31T05:40:42;10.20;99.90
57390;DHT22;43217;52.694;6.214;2023-10-31T05:43:08;10.20;99.90
57390;DHT22;43217;52.694;6.214;2023-10-31T05:45:33;10.20;99.90
57390;DHT22;43217;52.694;6.214;2023-10-31T05:47:59;10.20;99.90
57390;DHT22;43217;52.694;6.214;2023-10-31T05:50:25;10.20;99.90
57390;DHT22;43217;52.694;6.214;2023-10-31T05:52:50;10.10;99.90
57390;DHT22;43217;52.694;6.214;2023-10-31T05:55:16;10.10;99.90
57390;DHT22;43217;52.694;6.214;2023-10-31T05:57:41;10.10;99.90
57390;DHT22;43217;52.694;6.214;2023-10-31T06:00:08;10.10;99.90
57390;DHT22;43217;52.694;6.214;2023-10-31T06:02:34;10.10;99.90
57390;DHT22;43217;52.694;6.214;2023-10-31T06:05:29;10.10;99.90
57390;DHT22;43217;52.694;6.214;2023-10-31T06:07:55;10.10;99.90
57390;DHT22;43217;52.694;6.214;2023-10-31T06:10:24;10.00;99.90
57390;DHT22;43217;52.694;6.214;2023-10-31T06:12:50;10.00;99.90
57390;DHT22;43217;52.694;6.214;2023-10-31T06:15:15;10.00;99.90
57390;DHT22;43217;52.694;6.214;2023-10-31T06:17:41;10.10;99.90
57390;DHT22;43217;52.694;6.214;2023-10-31T06:20:08;10.10;99.90
57390;DHT22;43217;52.694;6.214;2023-10-31T06:22:34;10.10;99.90
57390;DHT22;43217;52.694;6.214;2023-10-31T06:24:59;10.10;99.90
57390;DHT22;43217;52.694;6.214;2023-10-31T06:27:25;10.10;99.90
57390;DHT22;43217;52.694;6.214;2023-10-31T06:29:50;10.10;99.90
57390;DHT22;43217;52.694;6.214;2023-10-31T06:32:16;10.10;99.90
57390;DHT22;43217;52.694;6.214;2023-10-31T06:34:42;10.10;99.90
57390;DHT22;43217;52.694;6.214;2023-10-31T06:37:07;10.10;99.90
57390;DHT22;43217;52.694;6.214;2023-10-31T06:39:33;10.10;99.90
57390;DHT22;43217;52.694;6.214;2023-10-31T06:41:58;10.10;99.90
57390;DHT22;43217;52.694;6.214;2023-10-31T06:44:24;10.10;99.90
57390;DHT22;43217;52.694;6.214;2023-10-31T06:46:51;10.20;99.90
57390;DHT22;43217;52.694;6.214;2023-10-31T06:49:16;10.20;99.90
57390;DHT22;43217;52.694;6.214;2023-10-31T06:51:43;10.20;99.90
57390;DHT22;43217;52.694;6.214;2023-10-31T06:54:09;10.20;99.90
57390;DHT22;43217;52.694;6.214;2023-10-31T06:56:34;10.20;99.90
57390;DHT22;43217;52.694;6.214;2023-10-31T06:59:00;10.20;99.90
57390;DHT22;43217;52.694;6.214;2023-10-31T07:01:27;10.20;99.90
57390;DHT22;43217;52.694;6.214;2023-10-31T07:03:53;10.20;99.90
57390;DHT22;43217;52.694;6.214;2023-10-31T07:06:20;10.20;99.90
57390;DHT22;43217;52.694;6.214;2023-10-31T07:08:46;10.30;99.90
57390;DHT22;43217;52.694;6.214;2023-10-31T07:11:13;10.30;99.90
57390;DHT22;43217;52.694;6.214;2023-10-31T07:13:39;10.30;99.90
57390;DHT22;43217;52.694;6.214;2023-10-31T07:16:05;10.30;99.90
57390;DHT22;43217;52.694;6.214;2023-10-31T07:18:31;10.30;99.90
57390;DHT22;43217;52.694;6.214;2023-10-31T07:20:56;10.30;99.90
57390;DHT22;43217;52.694;6.214;2023-10-31T07:23:22;10.30;99.90
57390;DHT22;43217;52.694;6.214;2023-10-31T07:25:50;10.30;99.90
57390;DHT22;43217;52.694;6.214;2023-10-31T07:28:16;10.30;99.90
57390;DHT22;43217;52.694;6.214;2023-10-31T07:30:43;10.40;99.90
57390;DHT22;43217;52.694;6.214;2023-10-31T07:33:15;10.40;99.90
57390;DHT22;43217;52.694;6.214;2023-10-31T07:35:40;10.40;99.90
57390;DHT22;43217;52.694;6.214;2023-10-31T07:38:06;10.50;99.90
57390;DHT22;43217;52.694;6.214;2023-10-31T07:40:33;10.50;99.90
57390;DHT22;43217;52.694;6.214;2023-10-31T07:42:58;10.50;99.90
57390;DHT22;43217;52.694;6.214;2023-10-31T07:45:24;10.60;99.90
57390;DHT22;43217;52.694;6.214;2023-10-31T07:47:50;10.60;99.90
57390;DHT22;43217;52.694;6.214;2023-10-31T07:50:16;10.60;99.90
57390;DHT22;43217;52.694;6.214;2023-10-31T07:52:45;10.60;99.90
57390;DHT22;43217;52.694;6.214;2023-10-31T07:55:12;10.70;99.90
57390;DHT22;43217;52.694;6.214;2023-10-31T07:57:37;10.70;99.90
57390;DHT22;43217;52.694;6.214;2023-10-31T08:00:03;10.80;99.90
57390;DHT22;43217;52.694;6.214;2023-10-31T08:02:30;10.80;99.90
57390;DHT22;43217;52.694;6.214;2023-10-31T08:05:12;10.90;99.90
57390;DHT22;43217;52.694;6.214;2023-10-31T08:07:38;10.90;99.90
57390;DHT22;43217;52.694;6.214;2023-10-31T08:10:04;11.00;99.90
57390;DHT22;43217;52.694;6.214;2023-10-31T08:12:30;11.00;99.90
57390;DHT22;43217;52.694;6.214;2023-10-31T08:14:55;11.00;99.90
57390;DHT22;43217;52.694;6.214;2023-10-31T08:17:21;11.10;99.90
57390;DHT22;43217;52.694;6.214;2023-10-31T08:19:47;11.10;99.90
57390;DHT22;43217;52.694;6.214;2023-10-31T08:22:16;11.10;99.90
57390;DHT22;43217;52.694;6.214;2023-10-31T08:24:42;11.10;99.90
57390;DHT22;43217;52.694;6.214;2023-10-31T08:27:07;11.20;99.90
57390;DHT22;43217;52.694;6.214;2023-10-31T08:29:34;11.20;99.90
57390;DHT22;43217;52.694;6.214;2023-10-31T08:32:00;11.20;99.90
57390;DHT22;43217;52.694;6.214;2023-10-31T08:34:30;11.20;99.90
57390;DHT22;43217;52.694;6.214;2023-10-31T08:36:56;11.20;99.90
57390;DHT22;43217;52.694;6.214;2023-10-31T08:39:22;11.20;99.90
57390;DHT22;43217;52.694;6.214;2023-10-31T08:41:52;11.20;99.90
57390;DHT22;43217;52.694;6.214;2023-10-31T08:44:18;11.20;99.90
57390;DHT22;43217;52.694;6.214;2023-10-31T08:46:44;11.20;99.90
57390;DHT22;43217;52.694;6.214;2023-10-31T08:49:10;11.20;99.90
57390;DHT22;43217;52.694;6.214;2023-10-31T08:51:35;11.20;99.90
57390;DHT22;43217;52.694;6.214;2023-10-31T08:54:01;11.20;99.90
57390;DHT22;43217;52.694;6.214;2023-10-31T08:56:26;11.20;99.90
57390;DHT22;43217;52.694;6.214;2023-10-31T08:58:53;11.30;99.90
57390;DHT22;43217;52.694;6.214;2023-10-31T09:01:19;11.30;99.90
57390;DHT22;43217;52.694;6.214;2023-10-31T09:03:45;11.30;99.90
57390;DHT22;43217;52.694;6.214;2023-10-31T09:06:11;11.30;99.90
57390;DHT22;43217;52.694;6.214;2023-10-31T09:08:36;11.40;99.90
57390;DHT22;43217;52.694;6.214;2023-10-31T09:11:04;11.40;99.90
57390;DHT22;43217;52.694;6.214;2023-10-31T09:13:31;11.40;99.90
57390;DHT22;43217;52.694;6.214;2023-10-31T09:15:58;11.40;99.90
57390;DHT22;43217;52.694;6.214;2023-10-31T09:18:24;11.50;99.90
57390;DHT22;43217;52.694;6.214;2023-10-31T09:20:50;11.50;99.90
57390;DHT22;43217;52.694;6.214;2023-10-31T09:23:15;11.50;99.90
57390;DHT22;43217;52.694;6.214;2023-10-31T09:25:45;11.50;99.90
57390;DHT22;43217;52.694;6.214;2023-10-31T09:28:11;11.50;99.90
57390;DHT22;43217;52.694;6.214;2023-10-31T09:30:37;11.60;99.90
57390;DHT22;43217;52.694;6.214;2023-10-31T09:33:02;11.60;99.90
57390;DHT22;43217;52.694;6.214;2023-10-31T09:35:28;11.70;99.90
57390;DHT22;43217;52.694;6.214;2023-10-31T09:37:55;11.70;99.90
57390;DHT22;43217;52.694;6.214;2023-10-31T09:40:21;11.70;99.90
57390;DHT22;43217;52.694;6.214;2023-10-31T09:42:47;11.70;99.90
57390;DHT22;43217;52.694;6.214;2023-10-31T09:45:13;11.70;99.90
57390;DHT22;43217;52.694;6.214;2023-10-31T09:47:40;11.80;99.90
57390;DHT22;43217;52.694;6.214;2023-10-31T09:50:06;11.80;99.90
57390;DHT22;43217;52.694;6.214;2023-10-31T09:52:35;11.80;99.90
57390;DHT22;43217;52.694;6.214;2023-10-31T09:55:02;11.80;99.90
57390;DHT22;43217;52.694;6.214;2023-10-31T09:57:28;11.90;99.90
57390;DHT22;43217;52.694;6.214;2023-10-31T09:59:54;12.00;99.90
57390;DHT22;43217;52.694;6.214;2023-10-31T10:02:20;12.00;99.90
57390;DHT22;43217;52.694;6.214;2023-10-31T10:04:57;12.00;99.90
57390;DHT22;43217;52.694;6.214;2023-10-31T10:07:23;12.10;99.90
57390;DHT22;43217;52.694;6.214;2023-10-31T10:09:55;12.00;99.90
57390;DHT22;43217;52.694;6.214;2023-10-31T10:12:21;12.10;99.90
57390;DHT22;43217;52.694;6.214;2023-10-31T10:14:47;12.30;99.90
57390;DHT22;43217;52.694;6.214;2023-10-31T10:17:23;12.50;99.90
57390;DHT22;43217;52.694;6.214;2023-10-31T10:20:07;12.60;99.90
57390;DHT22;43217;52.694;6.214;2023-10-31T10:22:45;12.80;99.90
57390;DHT22;43217;52.694;6.214;2023-10-31T10:25:13;12.90;99.90
57390;DHT22;43217;52.694;6.214;2023-10-31T10:27:41;13.00;99.90
57390;DHT22;43217;52.694;6.214;2023-10-31T10:30:14;13.00;99.90
57390;DHT22;43217;52.694;6.214;2023-10-31T10:32:40;13.10;99.90
57390;DHT22;43217;52.694;6.214;2023-10-31T10:35:07;13.10;99.90
57390;DHT22;43217;52.694;6.214;2023-10-31T10:37:37;13.10;99.90
57390;DHT22;43217;52.694;6.214;2023-10-31T10:40:07;13.00;99.90
57390;DHT22;43217;52.694;6.214;2023-10-31T10:42:55;13.00;99.90
57390;DHT22;43217;52.694;6.214;2023-10-31T10:45:23;12.90;99.90
57390;DHT22;43217;52.694;6.214;2023-10-31T10:47:50;13.00;99.90
57390;DHT22;43217;52.694;6.214;2023-10-31T10:50:21;13.00;99.90
57390;DHT22;43217;52.694;6.214;2023-10-31T10:52:54;13.10;99.90
57390;DHT22;43217;52.694;6.214;2023-10-31T10:55:25;13.10;99.90
57390;DHT22;43217;52.694;6.214;2023-10-31T10:58:01;13.20;99.90
57390;DHT22;43217;52.694;6.214;2023-10-31T11:00:29;13.20;99.90
57390;DHT22;43217;52.694;6.214;2023-10-31T11:02:57;13.10;99.90
57390;DHT22;43217;52.694;6.214;2023-10-31T11:05:26;13.10;99.90
57390;DHT22;43217;52.694;6.214;2023-10-31T11:07:52;13.00;99.90
57390;DHT22;43217;52.694;6.214;2023-10-31T11:10:18;12.90;99.90
57390;DHT22;43217;52.694;6.214;2023-10-31T11:12:44;12.80;99.90
57390;DHT22;43217;52.694;6.214;2023-10-31T11:15:18;12.70;99.90
57390;DHT22;43217;52.694;6.214;2023-10-31T11:17:45;12.60;99.90
57390;DHT22;43217;52.694;6.214;2023-10-31T11:20:14;12.50;99.90
57390;DHT22;43217;52.694;6.214;2023-10-31T11:22:45;12.50;99.90
57390;DHT22;43217;52.694;6.214;2023-10-31T11:25:17;12.40;99.90
57390;DHT22;43217;52.694;6.214;2023-10-31T11:27:44;12.40;99.90
57390;DHT22;43217;52.694;6.214;2023-10-31T11:30:27;12.40;99.90
57390;DHT22;43217;52.694;6.214;2023-10-31T11:32:54;12.30;99.90
57390;DHT22;43217;52.694;6.214;2023-10-31T11:35:21;12.30;99.90
57390;DHT22;43217;52.694;6.214;2023-10-31T11:38:02;12.40;99.90
57390;DHT22;43217;52.694;6.214;2023-10-31T11:40:35;12.40;99.90
57390;DHT22;43217;52.694;6.214;2023-10-31T11:43:05;12.50;99.90
57390;DHT22;43217;52.694;6.214;2023-10-31T11:51:17;12.50;99.90
57390;DHT22;43217;52.694;6.214;2023-10-31T11:53:47;12.50;99.90
57390;DHT22;43217;52.694;6.214;2023-10-31T11:56:13;12.50;99.90
57390;DHT22;43217;52.694;6.214;2023-10-31T11:58:39;12.40;99.90
57390;DHT22;43217;52.694;6.214;2023-10-31T12:01:07;12.40;99.90
57390;DHT22;43217;52.694;6.214;2023-10-31T12:03:41;12.50;99.90
57390;DHT22;43217;52.694;6.214;2023-10-31T12:06:09;12.50;99.90
57390;DHT22;43217;52.694;6.214;2023-10-31T12:08:39;12.50;99.90
57390;DHT22;43217;52.694;6.214;2023-10-31T12:11:13;12.50;99.90
57390;DHT22;43217;52.694;6.214;2023-10-31T12:13:59;12.60;99.90
57390;DHT22;43217;52.694;6.214;2023-10-31T12:19:42;12.70;99.90
57390;DHT22;43217;52.694;6.214;2023-10-31T12:22:15;12.70;99.90
57390;DHT22;43217;52.694;6.214;2023-10-31T12:24:41;12.70;99.90
57390;DHT22;43217;52.694;6.214;2023-10-31T12:27:06;12.80;99.90
57390;DHT22;43217;52.694;6.214;2023-10-31T12:29:32;12.70;99.90
57390;DHT22;43217;52.694;6.214;2023-10-31T12:31:57;12.70;99.90
57390;DHT22;43217;52.694;6.214;2023-10-31T12:34:24;12.60;99.90
57390;DHT22;43217;52.694;6.214;2023-10-31T12:36:52;12.60;99.90
57390;DHT22;43217;52.694;6.214;2023-10-31T12:39:24;12.50;99.90
57390;DHT22;43217;52.694;6.214;2023-10-31T12:41:51;12.50;99.90
57390;DHT22;43217;52.694;6.214;2023-10-31T12:44:23;12.40;99.90
57390;DHT22;43217;52.694;6.214;2023-10-31T12:46:50;12.30;99.90
57390;DHT22;43217;52.694;6.214;2023-10-31T12:49:18;12.30;99.90
57390;DHT22;43217;52.694;6.214;2023-10-31T12:52:03;12.20;99.90
57390;DHT22;43217;52.694;6.214;2023-10-31T12:54:33;12.20;99.90
57390;DHT22;43217;52.694;6.214;2023-10-31T12:57:04;12.20;99.90
57390;DHT22;43217;52.694;6.214;2023-10-31T12:59:34;12.20;99.90
57390;DHT22;43217;52.694;6.214;2023-10-31T13:02:02;12.20;99.90
57390;DHT22;43217;52.694;6.214;2023-10-31T13:04:30;12.20;99.90
57390;DHT22;43217;52.694;6.214;2023-10-31T13:06:56;12.10;99.90
57390;DHT22;43217;52.694;6.214;2023-10-31T13:09:22;12.10;99.90
57390;DHT22;43217;52.694;6.214;2023-10-31T13:11:48;12.20;99.90
57390;DHT22;43217;52.694;6.214;2023-10-31T13:14:14;12.20;99.90
57390;DHT22;43217;52.694;6.214;2023-10-31T13:16:39;12.20;99.90
57390;DHT22;43217;52.694;6.214;2023-10-31T13:19:06;12.20;99.90
57390;DHT22;43217;52.694;6.214;2023-10-31T13:21:32;12.30;99.90
57390;DHT22;43217;52.694;6.214;2023-10-31T13:23:57;12.30;99.90
57390;DHT22;43217;52.694;6.214;2023-10-31T13:26:23;12.30;99.90
57390;DHT22;43217;52.694;6.214;2023-10-31T13:28:48;12.40;99.90
57390;DHT22;43217;52.694;6.214;2023-10-31T13:31:14;12.40;99.90
57390;DHT22;43217;52.694;6.214;2023-10-31T13:33:40;12.40;99.90
57390;DHT22;43217;52.694;6.214;2023-10-31T13:36:05;12.50;99.90
57390;DHT22;43217;52.694;6.214;2023-10-31T13:38:31;12.50;99.90
57390;DHT22;43217;52.694;6.214;2023-10-31T13:40:57;12.50;99.90
57390;DHT22;43217;52.694;6.214;2023-10-31T13:43:22;12.40;99.90
57390;DHT22;43217;52.694;6.214;2023-10-31T13:45:48;12.40;99.90
57390;DHT22;43217;52.694;6.214;2023-10-31T13:48:14;12.50;99.90
57390;DHT22;43217;52.694;6.214;2023-10-31T13:50:40;12.50;99.90
57390;DHT22;43217;52.694;6.214;2023-10-31T13:53:06;12.60;99.90
57390;DHT22;43217;52.694;6.214;2023-10-31T13:55:33;12.80;99.90
57390;DHT22;43217;52.694;6.214;2023-10-31T13:57:58;12.90;99.90
57390;DHT22;43217;52.694;6.214;2023-10-31T14:00:24;12.90;99.90
57390;DHT22;43217;52.694;6.214;2023-10-31T14:02:50;12.90;99.90
57390;DHT22;43217;52.694;6.214;2023-10-31T14:05:15;12.90;99.90
57390;DHT22;43217;52.694;6.214;2023-10-31T14:07:41;12.80;99.90
57390;DHT22;43217;52.694;6.214;2023-10-31T14:10:22;12.70;99.90
57390;DHT22;43217;52.694;6.214;2023-10-31T14:12:48;12.70;99.90
57390;DHT22;43217;52.694;6.214;2023-10-31T14:15:14;12.70;99.90
57390;DHT22;43217;52.694;6.214;2023-10-31T14:17:40;12.60;99.90
57390;DHT22;43217;52.694;6.214;2023-10-31T14:20:06;12.60;99.90
57390;DHT22;43217;52.694;6.214;2023-10-31T14:22:32;12.50;99.90
57390;DHT22;43217;52.694;6.214;2023-10-31T14:24:57;12.40;99.90
57390;DHT22;43217;52.694;6.214;2023-10-31T14:27:23;12.40;99.90
57390;DHT22;43217;52.694;6.214;2023-10-31T14:29:49;12.40;99.90
57390;DHT22;43217;52.694;6.214;2023-10-31T14:32:14;12.30;99.90
57390;DHT22;43217;52.694;6.214;2023-10-31T14:34:40;12.30;99.90
57390;DHT22;43217;52.694;6.214;2023-10-31T14:37:05;12.30;99.90
57390;DHT22;43217;52.694;6.214;2023-10-31T14:39:31;12.30;99.90
57390;DHT22;43217;52.694;6.214;2023-10-31T14:41:57;12.30;99.90
57390;DHT22;43217;52.694;6.214;2023-10-31T14:44:23;12.20;99.90
57390;DHT22;43217;52.694;6.214;2023-10-31T14:46:49;12.30;99.90
57390;DHT22;43217;52.694;6.214;2023-10-31T14:49:18;12.20;99.90
57390;DHT22;43217;52.694;6.214;2023-10-31T14:51:43;12.20;99.90
57390;DHT22;43217;52.694;6.214;2023-10-31T14:54:16;12.20;99.90
57390;DHT22;43217;52.694;6.214;2023-10-31T14:56:43;12.20;99.90
57390;DHT22;43217;52.694;6.214;2023-10-31T14:59:08;12.10;99.90
57390;DHT22;43217;52.694;6.214;2023-10-31T15:01:34;12.10;99.90
57390;DHT22;43217;52.694;6.214;2023-10-31T15:04:01;12.20;99.90
57390;DHT22;43217;52.694;6.214;2023-10-31T15:06:30;12.20;99.90
57390;DHT22;43217;52.694;6.214;2023-10-31T15:08:56;12.10;99.90
57390;DHT22;43217;52.694;6.214;2023-10-31T15:11:23;12.10;99.90
57390;DHT22;43217;52.694;6.214;2023-10-31T15:13:48;12.10;99.90
57390;DHT22;43217;52.694;6.214;2023-10-31T15:16:14;12.00;99.90
57390;DHT22;43217;52.694;6.214;2023-10-31T15:18:40;12.00;99.90
57390;DHT22;43217;52.694;6.214;2023-10-31T15:21:07;12.00;99.90
57390;DHT22;43217;52.694;6.214;2023-10-31T15:23:34;11.90;99.90
57390;DHT22;43217;52.694;6.214;2023-10-31T15:26:01;11.90;99.90
57390;DHT22;43217;52.694;6.214;2023-10-31T15:28:27;11.90;99.90
57390;DHT22;43217;52.694;6.214;2023-10-31T15:30:52;11.80;99.90
57390;DHT22;43217;52.694;6.214;2023-10-31T15:33:18;11.80;99.90
57390;DHT22;43217;52.694;6.214;2023-10-31T15:35:44;11.80;99.90
57390;DHT22;43217;52.694;6.214;2023-10-31T15:38:10;11.70;99.90